Time;durP1;ratioP1;P1;durP2;ratioP2;P2;SDS_P1;SDS_P2;PMS_P1;PMS_P2;Temp;Humidity;BMP_temperature;BMP_pressure;BME280_temperature;BME280_humidity;BME280_pressure;Samples;Min_cycle;Max_cycle;Signal;HPM_P1;HPM_P2
2022/01/20 00:01:03;;;;;;;12.77;1.97;;;;;;;1.34;100.00;100807.03;7403737;19;20905;-47
2022/01/20 00:03:33;;;;;;;16.98;1.80;;;;;;;1.29;100.00;100808.31;7399087;19;20435;-50
2022/01/20 00:09:10;;;;;;;12.27;1.92;;;;;;;1.19;100.00;100807.56;7395394;19;20411;-47
2022/01/20 00:28:08;;;;;;;26.67;3.03;;;;;;;1.39;100.00;100789.59;7401603;19;20179;-45
2022/01/20 00:30:44;;;;;;;15.75;3.40;;;;;;;1.39;100.00;100780.28;7402531;19;20535;-47
2022/01/20 00:33:22;;;;;;;18.27;2.65;;;;;;;1.47;100.00;100771.63;7398024;19;20201;-46
2022/01/20 00:38:42;;;;;;;12.60;2.10;;;;;;;1.54;100.00;100762.81;7394677;19;20185;-46
2022/01/20 00:41:15;;;;;;;10.97;1.50;;;;;;;1.51;100.00;100760.03;7402186;19;20171;-45
2022/01/20 00:43:45;;;;;;;15.30;3.25;;;;;;;1.72;100.00;100772.66;7398044;19;20431;-47
2022/01/20 00:46:15;;;;;;;23.60;3.05;;;;;;;1.70;100.00;100764.88;7399387;19;20162;-44
2022/01/20 00:48:45;;;;;;;26.60;5.00;;;;;;;1.79;100.00;100763.84;7397386;19;20190;-48
2022/01/20 00:51:16;;;;;;;23.50;2.80;;;;;;;1.82;100.00;100764.97;7401830;19;20143;-46
2022/01/20 00:53:48;;;;;;;17.20;2.42;;;;;;;1.88;100.00;100759.47;7396496;19;20415;-47
2022/01/20 00:56:20;;;;;;;41.03;3.00;;;;;;;1.92;100.00;100774.19;7399961;19;20226;-46
2022/01/20 00:58:50;;;;;;;24.67;5.10;;;;;;;1.95;100.00;100765.91;7397642;19;20495;-50
2022/01/20 01:01:19;;;;;;;17.38;3.42;;;;;;;2.02;100.00;100781.75;7405968;19;20396;-45
2022/01/20 01:03:49;;;;;;;24.47;2.53;;;;;;;2.02;100.00;100796.16;7397048;19;20190;-45
2022/01/20 01:06:31;;;;;;;15.77;2.13;;;;;;;2.08;100.00;100790.63;7399382;19;20428;-46
2022/01/20 01:09:01;;;;;;;11.60;2.57;;;;;;;2.10;100.00;100779.81;7392853;19;20917;-47
2022/01/20 01:11:33;;;;;;;10.67;2.37;;;;;;;2.13;100.00;100785.13;7400729;19;20387;-46
2022/01/20 01:14:04;;;;;;;18.00;2.33;;;;;;;2.13;100.00;100776.59;7396271;19;20415;-46
2022/01/20 01:20:00;;;;;;;24.87;2.67;;;;;;;2.13;100.00;100779.16;7398807;19;20475;-49
2022/01/20 01:22:21;;;;;;;18.37;1.90;;;;;;;2.15;100.00;100788.69;7400595;19;20388;-47
2022/01/20 01:24:54;;;;;;;24.93;3.33;;;;;;;2.18;100.00;100787.13;7400211;19;20481;-49
2022/01/20 01:27:29;;;;;;;14.90;2.30;;;;;;;2.13;100.00;100791.88;7396573;19;20368;-48
2022/01/20 01:30:08;;;;;;;13.20;2.10;;;;;;;2.17;100.00;100788.81;7403730;19;20853;-48
2022/01/20 01:32:47;;;;;;;18.93;4.30;;;;;;;2.10;100.00;100805.25;7396421;19;20383;-48
2022/01/20 01:35:17;;;;;;;13.50;2.23;;;;;;;1.87;100.00;100794.22;7399355;19;20425;-45
2022/01/20 01:40:32;;;;;;;8.45;1.88;;;;;;;1.37;100.00;100751.31;7400265;19;20463;-53
2022/01/20 01:43:11;;;;;;;6.78;1.92;;;;;;;1.25;100.00;100761.44;7396280;19;20238;-46
2022/01/20 01:45:42;;;;;;;14.70;3.20;;;;;;;1.28;100.00;100766.72;7399040;19;20158;-45
2022/01/20 01:48:12;;;;;;;10.60;2.97;;;;;;;1.25;100.00;100765.59;7395012;19;20576;-46
2022/01/20 01:50:42;;;;;;;9.20;2.53;;;;;;;1.18;100.00;100754.94;7399638;19;20399;-45
2022/01/20 01:53:11;;;;;;;10.57;3.20;;;;;;;1.21;100.00;100760.28;7395811;19;20191;-45
2022/01/20 01:55:41;;;;;;;16.48;3.67;;;;;;;1.26;100.00;100757.22;7397933;19;20571;-46
2022/01/20 01:58:13;;;;;;;11.43;1.90;;;;;;;1.25;100.00;100758.88;7395753;19;20182;-45
2022/01/20 02:00:43;;;;;;;11.35;2.40;;;;;;;1.30;100.00;100751.63;7399633;19;20129;-46
2022/01/20 02:03:14;;;;;;;9.32;1.85;;;;;;;1.24;100.00;100753.66;7395866;19;20569;-47
2022/01/20 02:05:57;;;;;;;20.55;2.70;;;;;;;1.16;100.00;100756.50;7395380;19;20182;-45
2022/01/20 02:08:34;;;;;;;11.68;2.88;;;;;;;1.27;100.00;100749.72;7395941;19;20194;-47
2022/01/20 02:19:13;;;;;;;11.75;1.92;;;;;;;1.15;100.00;100759.81;7395040;19;20182;-47
2022/01/20 02:21:53;;;;;;;9.75;1.80;;;;;;;1.14;100.00;100760.56;7401934;19;20182;-50
2022/01/20 02:24:23;;;;;;;21.17;2.80;;;;;;;1.07;100.00;100771.00;7395203;19;20491;-49
2022/01/20 02:26:52;;;;;;;17.65;2.40;;;;;;;1.05;100.00;100772.53;7396095;19;20399;-49
2022/01/20 02:29:22;;;;;;;11.00;1.80;;;;;;;1.01;100.00;100773.03;7395135;19;20186;-46
2022/01/20 02:31:55;;;;;;;26.17;1.90;;;;;;;0.98;100.00;100778.78;7398212;19;20130;-48
2022/01/20 02:34:28;;;;;;;15.23;2.50;;;;;;;1.02;100.00;100782.47;7394752;19;20182;-46
2022/01/20 02:37:06;;;;;;;16.30;2.00;;;;;;;0.97;100.00;100778.66;7396939;19;20158;-45
2022/01/20 02:40:01;;;;;;;16.65;3.20;;;;;;;0.89;100.00;100781.47;7395321;19;20628;-48
2022/01/20 02:45:13;;;;;;;12.73;2.60;;;;;;;0.98;100.00;100796.56;7397100;19;20434;-45
2022/01/20 02:47:43;;;;;;;25.45;4.07;;;;;;;1.02;100.00;100778.25;7392320;19;20186;-47
2022/01/20 02:50:12;;;;;;;14.60;2.25;;;;;;;0.97;100.00;100783.75;7394966;19;20151;-45
2022/01/20 02:52:44;;;;;;;22.92;4.15;;;;;;;0.99;100.00;100795.81;7394669;19;20262;-49
2022/01/20 02:55:15;;;;;;;3.70;1.20;;;;;;;0.88;100.00;100792.38;7396957;19;20194;-46
2022/01/20 02:57:45;;;;;;;21.35;2.97;;;;;;;0.87;100.00;100782.97;7394344;19;20242;-50
2022/01/20 03:00:16;;;;;;;16.25;2.67;;;;;;;0.78;100.00;100761.94;7397857;19;20146;-47
2022/01/20 03:02:47;;;;;;;18.98;2.47;;;;;;;0.71;100.00;100785.94;7395416;19;20199;-44
2022/01/20 03:05:17;;;;;;;13.38;2.97;;;;;;;0.66;100.00;100792.28;7396939;19;20168;-46
2022/01/20 03:07:49;;;;;;;8.95;2.85;;;;;;;0.67;100.00;100810.19;7392706;19;20624;-46
2022/01/20 03:10:19;;;;;;;14.32;1.95;;;;;;;0.69;100.00;100809.41;7397701;19;20123;-46
2022/01/20 03:12:49;;;;;;;37.10;4.97;;;;;;;0.70;100.00;100834.03;7394121;19;20183;-45
2022/01/20 03:15:18;;;;;;;17.23;3.30;;;;;;;0.70;100.00;100832.41;7396560;19;20179;-44
2022/01/20 03:17:48;;;;;;;23.27;2.70;;;;;;;0.66;100.00;100833.81;7397237;19;20203;-45
2022/01/20 03:20:17;;;;;;;17.55;3.15;;;;;;;0.60;100.00;100845.09;7403746;19;20123;-45
2022/01/20 03:22:50;;;;;;;18.95;2.80;;;;;;;0.73;100.00;100855.53;7401169;19;20186;-44
2022/01/20 03:25:19;;;;;;;16.30;3.35;;;;;;;0.74;100.00;100849.69;7403447;19;20208;-47
2022/01/20 03:27:48;;;;;;;10.13;2.00;;;;;;;0.70;100.00;100870.50;7398927;19;20462;-44
2022/01/20 03:30:18;;;;;;;10.05;2.55;;;;;;;0.83;100.00;100872.44;7404424;19;20123;-44
2022/01/20 03:32:47;;;;;;;7.93;1.45;;;;;;;0.77;100.00;100884.63;7400894;19;20243;-44
2022/01/20 03:35:17;;;;;;;10.38;2.20;;;;;;;0.71;100.00;100884.13;7406783;19;20169;-45
2022/01/20 03:37:46;;;;;;;15.25;2.67;;;;;;;0.72;100.00;100896.91;7400365;19;20186;-48
2022/01/20 03:40:20;;;;;;;9.95;2.55;;;;;;;0.79;100.00;100904.31;7404100;19;20183;-48
2022/01/20 03:42:50;;;;;;;15.13;2.47;;;;;;;0.77;100.00;100897.31;7400749;19;20600;-46
2022/01/20 03:45:24;;;;;;;11.80;1.90;;;;;;;0.64;100.00;100914.06;7403423;19;20159;-45
2022/01/20 03:47:55;;;;;;;12.00;2.90;;;;;;;0.51;100.00;100898.56;7398490;19;20182;-45
2022/01/20 03:53:07;;;;;;;13.25;2.53;;;;;;;0.21;100.00;100888.44;7398328;19;20193;-45
2022/01/20 03:55:39;;;;;;;13.93;2.20;;;;;;;0.11;100.00;100886.78;7402026;19;20159;-44
2022/01/20 03:58:08;;;;;;;8.95;1.73;;;;;;;-0.03;100.00;100892.31;7399956;19;20190;-45
2022/01/20 04:00:38;;;;;;;11.18;1.75;;;;;;;0.01;100.00;100886.75;7403388;19;20123;-46
2022/01/20 04:03:07;;;;;;;8.25;2.05;;;;;;;0.16;100.00;100902.41;7400115;19;20197;-47
2022/01/20 04:05:41;;;;;;;9.38;1.50;;;;;;;0.20;100.00;100895.97;7401873;19;20158;-47
2022/01/20 04:08:11;;;;;;;7.78;1.40;;;;;;;0.26;100.00;100932.03;7397920;19;20503;-45
2022/01/20 04:10:43;;;;;;;12.80;2.25;;;;;;;0.42;100.00;100935.84;7403125;19;20119;-45
2022/01/20 04:13:14;;;;;;;14.73;1.80;;;;;;;0.30;100.00;100928.09;7399554;19;20250;-50
2022/01/20 04:15:43;;;;;;;5.53;1.35;;;;;;;0.28;100.00;100943.19;7401369;19;20166;-49
2022/01/20 04:18:19;;;;;;;16.02;2.70;;;;;;;0.21;100.00;100961.19;7398990;19;20210;-45
2022/01/20 04:20:49;;;;;;;11.27;2.63;;;;;;;0.28;100.00;100965.13;7402890;19;20123;-46
2022/01/20 04:23:18;;;;;;;14.27;1.77;;;;;;;0.22;100.00;100965.50;7399801;19;20188;-49
2022/01/20 04:25:50;;;;;;;11.63;2.55;;;;;;;0.16;100.00;100986.16;7400912;19;20203;-45
2022/01/20 04:28:20;;;;;;;8.75;1.67;;;;;;;0.20;100.00;100969.56;7397647;19;20250;-44
2022/01/20 04:30:49;;;;;;;14.38;1.80;;;;;;;0.10;100.00;100945.91;7401744;19;20194;-46
2022/01/20 04:33:19;;;;;;;8.20;1.85;;;;;;;0.15;100.00;100953.03;7399500;19;20186;-47
2022/01/20 04:35:49;;;;;;;21.40;1.88;;;;;;;0.05;100.00;100962.38;7400539;19;20165;-47
2022/01/20 04:38:18;;;;;;;18.27;2.15;;;;;;;0.10;100.00;100976.34;7398477;19;20200;-46
2022/01/20 04:40:50;;;;;;;14.50;2.33;;;;;;;0.13;100.00;100976.63;7402200;19;20195;-47
2022/01/20 04:43:20;;;;;;;15.38;1.92;;;;;;;0.09;100.00;100972.03;7398338;19;20253;-46
2022/01/20 04:45:56;;;;;;;5.00;1.40;;;;;;;0.06;100.00;100963.28;7400015;19;20159;-48
2022/01/20 04:48:41;;;;;;;19.65;1.65;;;;;;;0.07;100.00;100975.19;7397545;19;20615;-47
2022/01/20 04:59:19;;;;;;;13.88;2.25;;;;;;;0.15;100.00;100988.56;7398128;19;20186;-50
2022/01/20 05:01:48;;;;;;;13.13;2.17;;;;;;;0.13;100.00;100991.88;7401329;19;20123;-44
2022/01/20 05:04:18;;;;;;;9.25;1.60;;;;;;;0.13;100.00;101001.13;7397006;19;20183;-49
2022/01/20 05:06:48;;;;;;;14.07;1.90;;;;;;;0.07;100.00;101006.56;7402348;19;20169;-51
2022/01/20 05:09:21;;;;;;;13.25;3.20;;;;;;;0.04;100.00;100998.66;7397320;19;20190;-44
2022/01/20 05:11:59;;;;;;;12.85;1.83;;;;;;;0.07;100.00;101004.00;7401030;19;20123;-46
2022/01/20 05:14:29;;;;;;;11.13;2.50;;;;;;;0.05;100.00;101002.97;7394658;19;20193;-44
2022/01/20 05:17:00;;;;;;;14.32;2.75;;;;;;;0.04;100.00;101016.41;7399454;19;20545;-46
2022/01/20 05:19:31;;;;;;;15.07;2.75;;;;;;;0.12;100.00;101019.63;7396024;19;20201;-46
2022/01/20 05:22:02;;;;;;;14.77;2.80;;;;;;;0.16;100.00;101015.72;7400806;19;20127;-46
2022/01/20 05:24:31;;;;;;;16.02;2.70;;;;;;;0.17;100.00;101040.34;7396829;19;20540;-46
2022/01/20 05:27:04;;;;;;;25.25;2.92;;;;;;;0.17;100.00;101043.78;7399802;19;20575;-45
2022/01/20 05:29:34;;;;;;;16.92;2.28;;;;;;;0.21;100.00;101058.50;7396705;19;20621;-46
2022/01/20 05:32:04;;;;;;;23.77;3.55;;;;;;;0.21;100.00;101055.09;7400228;19;20125;-48
2022/01/20 05:34:33;;;;;;;15.73;2.95;;;;;;;0.28;100.00;101067.56;7395697;19;20258;-50
2022/01/20 05:37:04;;;;;;;29.13;3.10;;;;;;;0.29;100.00;101068.47;7398631;19;20162;-46
2022/01/20 05:39:33;;;;;;;18.33;2.25;;;;;;;0.28;100.00;101067.56;7396292;19;20178;-49
2022/01/20 05:42:06;;;;;;;12.48;2.00;;;;;;;0.25;100.00;101074.88;7397535;19;20130;-47
2022/01/20 05:44:36;;;;;;;15.63;2.13;;;;;;;0.22;100.00;101082.25;7395694;19;20254;-46
2022/01/20 05:47:11;;;;;;;13.63;3.13;;;;;;;0.20;100.00;101089.72;7397762;19;20182;-48
2022/01/20 05:49:40;;;;;;;15.80;3.28;;;;;;;0.29;100.00;101088.78;7395579;19;20604;-46
2022/01/20 05:52:10;;;;;;;18.15;3.35;;;;;;;0.30;100.00;101111.72;7399677;19;20186;-45
2022/01/20 05:54:39;;;;;;;14.73;2.83;;;;;;;0.26;100.00;101097.88;7394419;19;20234;-47
2022/01/20 05:57:12;;;;;;;28.55;4.43;;;;;;;0.33;100.00;101103.50;7398362;19;20210;-48
2022/01/20 05:59:41;;;;;;;16.13;2.70;;;;;;;0.28;100.00;101108.19;7394730;19;20186;-50
2022/01/20 06:02:26;;;;;;;13.82;2.50;;;;;;;0.26;100.00;101099.53;7399441;19;20402;-45
2022/01/20 06:04:55;;;;;;;18.40;3.00;;;;;;;0.33;100.00;101112.03;7397763;19;20184;-47
2022/01/20 06:07:26;;;;;;;21.05;3.45;;;;;;;0.30;100.00;101101.59;7394760;19;20134;-51
2022/01/20 06:09:55;;;;;;;37.28;3.22;;;;;;;0.28;100.00;101092.94;7398934;19;20137;-49
2022/01/20 06:12:27;;;;;;;11.73;2.20;;;;;;;0.20;100.00;101107.50;7395582;19;20121;-45
2022/01/20 06:14:57;;;;;;;15.57;3.83;;;;;;;0.19;100.00;101102.28;7398045;19;20119;-47
2022/01/20 06:17:28;;;;;;;27.00;3.72;;;;;;;0.15;100.00;101100.22;7395819;19;20446;-49
2022/01/20 06:19:58;;;;;;;36.50;3.55;;;;;;;0.17;100.00;101106.31;7400599;19;20182;-45
2022/01/20 06:22:27;;;;;;;20.60;3.53;;;;;;;0.15;100.00;101113.78;7394832;19;20131;-47
2022/01/20 06:24:57;;;;;;;17.60;2.88;;;;;;;0.13;100.00;101118.75;7397711;19;20126;-50
2022/01/20 06:27:29;;;;;;;25.50;3.85;;;;;;;0.23;100.00;101115.41;7395539;19;20194;-48
2022/01/20 06:29:58;;;;;;;34.63;3.38;;;;;;;0.25;100.00;101113.88;7398443;19;20131;-46
2022/01/20 06:32:28;;;;;;;23.08;3.90;;;;;;;0.28;100.00;101112.34;7395205;19;20517;-48
2022/01/20 06:34:57;;;;;;;17.48;3.63;;;;;;;0.18;100.00;101133.47;7397043;19;20121;-46
2022/01/20 06:37:27;;;;;;;24.15;4.15;;;;;;;0.23;100.00;101132.25;7395286;19;20569;-46
2022/01/20 06:39:56;;;;;;;16.67;3.75;;;;;;;0.26;100.00;101135.97;7397658;19;20175;-46
2022/01/20 06:42:28;;;;;;;13.02;2.95;;;;;;;0.25;100.00;101138.34;7394219;19;20160;-47
2022/01/20 06:44:58;;;;;;;15.07;3.28;;;;;;;0.21;100.00;101142.25;7397127;19;20399;-45
2022/01/20 06:47:32;;;;;;;23.35;3.10;;;;;;;0.16;100.00;101155.31;7392266;19;20137;-45
2022/01/20 06:50:02;;;;;;;24.55;3.15;;;;;;;0.18;100.00;101157.22;7395870;19;20127;-47
2022/01/20 06:52:32;;;;;;;23.55;3.60;;;;;;;0.16;100.00;101161.28;7395483;19;20521;-49
2022/01/20 06:55:05;;;;;;;16.52;2.60;;;;;;;0.17;100.00;101169.78;7404257;19;20127;-44
2022/01/20 06:57:37;;;;;;;12.65;2.53;;;;;;;0.16;100.00;101171.44;7401925;19;20133;-45
2022/01/20 07:00:08;;;;;;;10.10;2.30;;;;;;;0.18;100.00;101181.72;7409455;19;20135;-47
2022/01/20 07:02:38;;;;;;;21.25;2.78;;;;;;;0.19;100.00;101174.25;7401960;19;20123;-47
2022/01/20 07:05:09;;;;;;;15.07;2.13;;;;;;;0.16;100.00;101178.16;7404196;19;20162;-47
2022/01/20 07:07:38;;;;;;;16.30;2.35;;;;;;;0.20;100.00;101190.38;7401861;19;20129;-44
2022/01/20 07:10:10;;;;;;;18.17;2.40;;;;;;;0.17;100.00;101182.47;7403035;19;20510;-45
2022/01/20 07:12:44;;;;;;;16.02;2.47;;;;;;;0.16;100.00;101178.16;7401657;19;20123;-45
2022/01/20 07:15:15;;;;;;;17.88;2.78;;;;;;;0.19;100.00;101179.31;7403987;19;20169;-45
2022/01/20 07:17:44;;;;;;;22.27;2.33;;;;;;;0.13;100.00;101184.75;7396919;19;20250;-49
2022/01/20 07:20:15;;;;;;;21.35;3.17;;;;;;;0.08;100.00;101185.97;7404514;19;20119;-49
2022/01/20 07:22:44;;;;;;;22.40;3.17;;;;;;;0.13;100.00;101187.28;7402129;19;20187;-49
2022/01/20 07:25:15;;;;;;;12.98;2.53;;;;;;;0.07;100.00;101179.13;7403362;19;20463;-46
2022/01/20 07:27:47;;;;;;;16.35;3.38;;;;;;;0.05;100.00;101185.66;7400539;19;20496;-47
2022/01/20 07:30:37;;;;;;;17.38;2.65;;;;;;;0.09;100.00;101194.44;7404717;19;20127;-45
2022/01/20 07:33:07;;;;;;;14.68;2.88;;;;;;;0.12;100.00;101222.66;7401348;19;20207;-47
2022/01/20 07:35:38;;;;;;;14.50;2.95;;;;;;;0.08;100.00;101221.50;7406933;19;20180;-48
2022/01/20 07:38:08;;;;;;;28.27;3.03;;;;;;;0.07;100.00;101222.25;7399233;19;20198;-45
2022/01/20 07:40:37;;;;;;;12.95;2.72;;;;;;;0.11;100.00;101231.91;7408225;19;20525;-49
2022/01/20 07:43:10;;;;;;;22.42;3.63;;;;;;;0.12;100.00;101236.22;7399238;19;20258;-46
2022/01/20 07:45:40;;;;;;;27.58;3.42;;;;;;;0.13;100.00;101235.50;7402212;19;20443;-49
2022/01/20 07:48:09;;;;;;;25.15;3.08;;;;;;;0.22;100.00;101225.31;7399256;19;20204;-46
2022/01/20 07:50:39;;;;;;;18.20;3.85;;;;;;;0.21;100.00;101242.91;7401234;19;20195;-48
2022/01/20 07:53:09;;;;;;;8.27;2.45;;;;;;;0.15;100.00;101242.34;7399861;19;20214;-52
2022/01/20 07:55:38;;;;;;;24.05;2.75;;;;;;;0.15;100.00;101252.50;7401788;19;20170;-52
2022/01/20 07:58:10;;;;;;;19.02;2.67;;;;;;;0.22;100.00;101255.75;7402544;19;20489;-50
2022/01/20 08:00:40;;;;;;;20.70;4.32;;;;;;;0.25;100.00;101250.94;7408103;19;20123;-50
2022/01/20 08:03:10;;;;;;;26.17;8.38;;;;;;;0.43;100.00;101237.25;7399747;19;21000;-53
2022/01/20 08:05:39;;;;;;;13.20;2.92;;;;;;;0.39;100.00;101242.06;7400355;19;20437;-45
2022/01/20 08:08:09;;;;;;;25.05;7.43;;;;;;;0.48;100.00;101236.00;7399035;19;20186;-46
2022/01/20 08:10:38;;;;;;;25.80;5.35;;;;;;;0.44;100.00;101246.63;7400693;19;20179;-47
2022/01/20 08:13:11;;;;;;;21.40;3.67;;;;;;;0.52;100.00;101253.31;7401264;19;20208;-50
2022/01/20 08:15:40;;;;;;;15.90;4.22;;;;;;;0.57;100.00;101254.63;7401601;19;20158;-45
2022/01/20 08:18:10;;;;;;;52.33;18.15;;;;;;;0.56;100.00;101254.50;7398455;19;20190;-45
2022/01/20 08:20:39;;;;;;;19.60;5.32;;;;;;;0.58;100.00;101255.50;7404250;19;20123;-45
2022/01/20 08:23:09;;;;;;;20.50;4.13;;;;;;;0.54;100.00;101259.41;7398971;19;20187;-45
2022/01/20 08:25:39;;;;;;;39.10;13.63;;;;;;;0.54;100.00;101261.97;7401090;19;20215;-46
2022/01/20 08:28:12;;;;;;;20.10;4.22;;;;;;;0.62;100.00;101257.56;7398865;19;20186;-44
2022/01/20 08:30:42;;;;;;;25.77;3.55;;;;;;;0.56;100.00;101241.78;7400657;19;20123;-45
2022/01/20 08:33:12;;;;;;;25.65;4.47;;;;;;;0.57;100.00;101249.56;7397486;19;20187;-45
2022/01/20 08:35:41;;;;;;;18.52;5.43;;;;;;;0.50;100.00;101237.03;7400751;19;20206;-46
2022/01/20 08:38:11;;;;;;;25.48;7.38;;;;;;;0.62;100.00;101238.13;7398582;19;20182;-47
2022/01/20 08:40:41;;;;;;;14.88;3.60;;;;;;;0.53;100.00;101242.41;7401617;19;20401;-45
2022/01/20 08:43:13;;;;;;;27.83;7.88;;;;;;;0.60;100.00;101247.28;7402131;19;20193;-44
2022/01/20 08:45:44;;;;;;;16.20;3.35;;;;;;;0.55;100.00;101245.97;7399805;19;20210;-45
2022/01/20 08:48:14;;;;;;;26.40;6.07;;;;;;;0.70;100.00;101235.38;7396729;19;20500;-49
2022/01/20 08:50:45;;;;;;;15.13;3.13;;;;;;;0.70;100.00;101230.31;7400020;19;20182;-47
2022/01/20 08:53:15;;;;;;;14.88;2.15;;;;;;;0.76;100.00;101248.63;7394037;19;20197;-49
2022/01/20 08:55:44;;;;;;;40.17;5.85;;;;;;;0.71;100.00;101254.97;7404602;19;20163;-45
2022/01/20 08:58:18;;;;;;;26.27;4.88;;;;;;;0.76;100.00;101256.25;7400200;19;20600;-48
2022/01/20 09:00:47;;;;;;;18.42;2.55;;;;;;;0.66;100.00;101255.44;7401312;19;20546;-45
2022/01/20 09:03:17;;;;;;;22.25;2.80;;;;;;;0.63;100.00;101254.28;7397583;19;20190;-45
2022/01/20 09:05:46;;;;;;;23.08;5.25;;;;;;;0.70;100.00;101255.69;7399743;19;20158;-46
2022/01/20 09:08:17;;;;;;;16.73;3.45;;;;;;;0.81;100.00;101242.31;7395694;19;20192;-47
2022/01/20 09:10:53;;;;;;;20.30;5.15;;;;;;;0.85;100.00;101248.56;7399287;19;20119;-48
2022/01/20 09:16:11;;;;;;;12.30;2.40;;;;;;;1.10;100.00;101258.34;7398503;19;20465;-48
2022/01/20 09:18:41;;;;;;;10.75;1.90;;;;;;;1.06;100.00;101270.81;7396829;19;20190;-47
2022/01/20 09:21:11;;;;;;;15.77;2.75;;;;;;;1.06;100.00;101269.91;7404055;19;20126;-45
2022/01/20 09:23:40;;;;;;;12.43;3.35;;;;;;;1.00;100.00;101272.81;7396794;19;20186;-51
2022/01/20 09:26:10;;;;;;;13.50;2.00;;;;;;;0.85;100.00;101281.59;7401347;19;20174;-48
2022/01/20 09:28:42;;;;;;;10.00;1.80;;;;;;;0.75;100.00;101279.88;7392496;19;20186;-48
2022/01/20 09:31:12;;;;;;;10.82;1.85;;;;;;;0.63;100.00;101279.69;7399187;19;20199;-51
2022/01/20 09:33:41;;;;;;;11.57;2.55;;;;;;;0.69;100.00;101279.31;7395046;19;20189;-50
2022/01/20 09:36:12;;;;;;;9.75;1.83;;;;;;;0.67;100.00;101287.72;7401855;19;20218;-45
2022/01/20 09:38:41;;;;;;;10.98;2.17;;;;;;;0.67;100.00;101295.31;7397166;19;20521;-45
2022/01/20 09:41:11;;;;;;;7.60;1.75;;;;;;;0.72;100.00;101294.84;7402262;19;20118;-45
2022/01/20 09:43:43;;;;;;;13.73;1.70;;;;;;;0.64;100.00;101307.78;7395453;19;20480;-45
2022/01/20 09:46:13;;;;;;;13.18;1.70;;;;;;;0.60;100.00;101298.06;7396575;19;20167;-45
2022/01/20 09:48:42;;;;;;;6.70;1.30;;;;;;;0.55;100.00;101299.28;7395146;19;20194;-45
2022/01/20 09:51:13;;;;;;;26.20;2.47;;;;;;;0.54;100.00;101305.13;7397062;19;20183;-46
2022/01/20 09:53:43;;;;;;;16.08;2.25;;;;;;;0.57;100.00;101279.13;7394994;19;20231;-44
2022/01/20 09:56:15;;;;;;;13.35;1.70;;;;;;;0.43;100.00;101290.56;7396753;19;20171;-45
2022/01/20 09:58:47;;;;;;;9.00;2.45;;;;;;;0.39;100.00;101292.84;7395283;19;20264;-50
2022/01/20 10:01:17;;;;;;;9.15;2.05;;;;;;;0.41;100.00;101298.03;7398972;19;20183;-47
2022/01/20 10:03:50;;;;;;;11.23;2.65;;;;;;;0.60;100.00;101310.78;7394324;19;20187;-49
2022/01/20 10:06:20;;;;;;;14.95;3.85;;;;;;;0.76;100.00;101312.13;7399543;19;20442;-47
2022/01/20 10:09:00;;;;;;;10.38;3.35;;;;;;;0.71;100.00;101306.66;7395060;19;20186;-45
2022/01/20 10:11:47;;;;;;;11.82;3.13;;;;;;;0.79;100.00;101332.75;7396834;19;20140;-48
2022/01/20 10:14:19;;;;;;;12.75;1.75;;;;;;;0.73;100.00;101329.66;7394097;19;20250;-45
2022/01/20 10:16:49;;;;;;;18.50;2.67;;;;;;;0.54;100.00;101335.59;7396170;19;20206;-47
2022/01/20 10:19:26;;;;;;;11.90;2.70;;;;;;;0.40;100.00;101325.09;7395636;19;20189;-45
2022/01/20 10:21:56;;;;;;;11.57;3.85;;;;;;;0.34;100.00;101304.22;7398557;19;20140;-49
2022/01/20 10:24:28;;;;;;;8.35;1.13;;;;;;;0.19;100.00;101310.41;7389881;19;20249;-46
2022/01/20 10:26:58;;;;;;;10.90;1.50;;;;;;;-0.05;100.00;101304.84;7402438;19;20230;-50
2022/01/20 10:29:30;;;;;;;5.05;1.35;;;;;;;-0.19;100.00;101299.38;7404986;19;20670;-45
2022/01/20 10:32:19;;;;;;;3.03;1.10;;;;;;;-0.18;100.00;101298.63;7406792;19;20127;-45
2022/01/20 10:34:49;;;;;;;12.52;3.22;;;;;;;-0.08;100.00;101324.84;7404844;19;20230;-45
2022/01/20 10:37:24;;;;;;;5.60;1.40;;;;;;;-0.15;100.00;101314.13;7403916;19;20133;-46
2022/01/20 10:39:53;;;;;;;6.93;2.05;;;;;;;-0.04;100.00;101316.78;7407571;19;20233;-47
2022/01/20 10:42:26;;;;;;;7.13;1.05;;;;;;;-0.18;100.00;101328.16;7406343;19;20129;-50
2022/01/20 10:44:59;;;;;;;2.50;0.88;;;;;;;0.06;100.00;101327.03;7404782;19;20446;-45
2022/01/20 10:47:30;;;;;;;2.63;0.68;;;;;;;0.15;100.00;101326.13;7403480;19;20150;-45
2022/01/20 10:50:11;;;;;;;3.78;0.80;;;;;;;0.24;100.00;101326.94;7404799;19;20186;-47
2022/01/20 10:52:44;;;;;;;8.73;1.77;;;;;;;0.24;100.00;101304.09;7402509;19;20186;-48
2022/01/20 10:55:23;;;;;;;11.00;1.55;;;;;;;0.19;100.00;101297.72;7406196;19;20162;-49
2022/01/20 10:58:10;;;;;;;7.05;1.00;;;;;;;0.10;100.00;101316.41;7402094;19;20452;-48
2022/01/20 11:00:46;;;;;;;7.63;1.95;;;;;;;0.18;100.00;101308.63;7407110;19;20134;-46
2022/01/20 11:03:17;;;;;;;5.53;1.23;;;;;;;0.28;100.00;101293.50;7401736;19;20648;-45
2022/01/20 11:05:51;;;;;;;11.55;2.03;;;;;;;0.47;100.00;101292.63;7407432;19;20557;-46
2022/01/20 11:08:21;;;;;;;7.53;1.45;;;;;;;0.63;100.00;101295.81;7401120;19;20197;-45
2022/01/20 11:10:52;;;;;;;10.32;1.38;;;;;;;0.74;100.00;101289.16;7403996;19;20140;-45
2022/01/20 11:13:22;;;;;;;8.85;1.63;;;;;;;0.82;100.00;101292.38;7402211;19;20190;-45
2022/01/20 11:15:54;;;;;;;11.80;2.08;;;;;;;0.88;100.00;101286.97;7407190;19;20167;-45
2022/01/20 11:18:28;;;;;;;9.95;2.10;;;;;;;0.95;100.00;101299.47;7403764;19;20187;-47
2022/01/20 11:21:00;;;;;;;8.68;2.10;;;;;;;1.07;100.00;101289.47;7406099;19;20133;-50
2022/01/20 11:23:38;;;;;;;7.15;1.80;;;;;;;1.20;100.00;101301.63;7400822;19;20440;-46
2022/01/20 11:26:08;;;;;;;9.02;2.08;;;;;;;1.37;100.00;101292.94;7402057;19;20157;-45
2022/01/20 11:28:38;;;;;;;7.78;1.63;;;;;;;1.47;100.00;101285.38;7400571;19;20190;-45
2022/01/20 11:31:11;;;;;;;12.35;2.60;;;;;;;1.53;100.00;101297.72;7403596;19;20119;-45
2022/01/20 11:33:42;;;;;;;8.23;1.90;;;;;;;1.55;100.00;101293.66;7401157;19;20213;-52
2022/01/20 11:36:23;;;;;;;12.20;1.97;;;;;;;1.61;100.00;101294.19;7405980;19;20491;-46
2022/01/20 11:39:14;;;;;;;6.93;1.95;;;;;;;1.66;100.00;101293.69;7400308;19;20407;-47
2022/01/20 11:41:47;;;;;;;11.10;1.83;;;;;;;1.71;100.00;101308.59;7404191;19;20500;-46
2022/01/20 11:44:18;;;;;;;14.07;1.60;;;;;;;1.71;100.00;101311.16;7400563;19;20480;-45
2022/01/20 11:46:53;;;;;;;10.30;1.60;;;;;;;1.68;100.00;101318.50;7403945;19;20423;-50
2022/01/20 11:49:23;;;;;;;7.20;1.65;;;;;;;1.69;100.00;101274.50;7403860;19;20450;-46
2022/01/20 11:51:56;;;;;;;8.73;1.77;;;;;;;1.70;100.00;101323.72;7401010;19;20565;-49
2022/01/20 11:54:32;;;;;;;9.13;2.10;;;;;;;1.68;100.00;101321.03;7402827;19;20185;-45
2022/01/20 11:57:10;;;;;;;13.25;2.25;;;;;;;1.69;100.00;101315.19;7401658;19;20424;-52
2022/01/20 11:59:41;;;;;;;14.10;2.60;;;;;;;1.74;100.00;101315.59;7400502;19;20439;-45
2022/01/20 12:02:26;;;;;;;20.13;2.90;;;;;;;1.88;100.00;101326.97;7403345;19;20185;-46
2022/01/20 12:04:56;;;;;;;14.43;2.40;;;;;;;2.00;100.00;101314.41;7401768;19;20417;-46
2022/01/20 12:07:27;;;;;;;14.95;2.45;;;;;;;1.95;100.00;101324.19;7399314;19;20838;-46
2022/01/20 12:10:08;;;;;;;14.23;2.33;;;;;;;1.77;100.00;101325.13;7402939;19;20119;-48
2022/01/20 12:12:39;;;;;;;9.10;1.80;;;;;;;1.70;100.00;101305.94;7398164;19;20215;-46
2022/01/20 12:15:12;;;;;;;10.85;3.05;;;;;;;1.69;100.00;101292.28;7402951;19;20517;-45
2022/01/20 12:17:50;;;;;;;17.10;2.60;;;;;;;1.67;100.00;101301.47;7402979;19;20261;-50
2022/01/20 12:20:21;;;;;;;7.93;1.60;;;;;;;1.80;100.00;101302.53;7405690;19;20395;-49
2022/01/20 12:22:51;;;;;;;20.50;2.30;;;;;;;1.90;100.00;101300.00;7401557;19;20436;-46
2022/01/20 12:25:24;;;;;;;10.73;1.83;;;;;;;2.10;100.00;101293.19;7404893;19;20495;-45
2022/01/20 12:27:54;;;;;;;11.57;1.70;;;;;;;2.09;100.00;101287.19;7402157;19;20934;-44
2022/01/20 12:30:26;;;;;;;14.37;2.40;;;;;;;2.07;100.00;101298.91;7405319;19;20403;-47
2022/01/20 12:33:07;;;;;;;8.83;1.70;;;;;;;1.98;100.00;101306.63;7400550;19;20447;-48